createdAt,value
2022-09-11T00:01:55.236Z,22.50
2022-09-11T00:04:21.723Z,22.50
2022-09-11T00:06:48.194Z,22.50
2022-09-11T00:09:14.669Z,22.50
2022-09-11T00:11:41.143Z,22.50
2022-09-11T00:14:07.604Z,22.50
2022-09-11T00:16:34.078Z,22.50
2022-09-11T00:19:00.532Z,22.50
2022-09-11T00:21:27.010Z,22.50
2022-09-11T00:23:59.579Z,22.50
2022-09-11T00:26:26.054Z,22.50
2022-09-11T00:28:52.510Z,22.50
2022-09-11T00:31:19.019Z,22.50
2022-09-11T00:33:45.524Z,22.50
2022-09-11T00:36:11.994Z,22.50
2022-09-11T00:38:38.451Z,22.50
2022-09-11T00:41:04.933Z,22.40
2022-09-11T00:43:35.452Z,22.50
2022-09-11T00:46:01.949Z,22.40
2022-09-11T00:48:28.425Z,22.40
2022-09-11T00:50:54.902Z,22.40
2022-09-11T00:53:21.397Z,22.40
2022-09-11T00:55:53.454Z,22.40
2022-09-11T00:58:19.949Z,22.40
2022-09-11T01:00:47.449Z,22.50
2022-09-11T01:03:13.943Z,22.40
2022-09-11T01:05:40.425Z,22.40
2022-09-11T01:08:06.895Z,22.40
2022-09-11T01:10:35.417Z,22.40
2022-09-11T01:13:01.891Z,22.40
2022-09-11T01:15:28.369Z,22.40
2022-09-11T01:17:54.866Z,22.40
2022-09-11T01:20:21.328Z,22.40
2022-09-11T01:22:47.806Z,22.40
2022-09-11T01:25:14.276Z,22.40
2022-09-11T01:27:40.737Z,22.40
2022-09-11T01:30:09.548Z,22.40
2022-09-11T01:32:37.927Z,22.40
2022-09-11T01:35:05.450Z,22.40
2022-09-11T01:37:31.935Z,22.40
2022-09-11T01:39:58.480Z,22.40
2022-09-11T01:42:25.003Z,22.40
2022-09-11T01:44:51.467Z,22.40
2022-09-11T01:47:17.965Z,22.40
2022-09-11T01:49:47.697Z,22.40
2022-09-11T01:52:14.181Z,22.40
2022-09-11T01:54:40.653Z,22.40
2022-09-11T01:57:07.157Z,22.30
2022-09-11T01:59:33.628Z,22.40
2022-09-11T02:02:00.191Z,22.40
2022-09-11T02:04:29.648Z,22.40
2022-09-11T02:06:56.123Z,22.40
2022-09-11T02:09:23.520Z,22.40
2022-09-11T02:11:49.990Z,22.40
2022-09-11T02:14:16.459Z,22.40
2022-09-11T02:16:42.939Z,22.40
2022-09-11T02:19:09.407Z,22.40
2022-09-11T02:21:35.888Z,22.30
2022-09-11T02:24:02.359Z,22.30
2022-09-11T02:26:28.839Z,22.40
2022-09-11T02:28:55.308Z,22.40
2022-09-11T02:31:23.535Z,22.40
2022-09-11T02:33:50.026Z,22.40
2022-09-11T02:36:17.484Z,22.40
2022-09-11T02:38:43.984Z,22.40
2022-09-11T02:41:10.460Z,22.40
2022-09-11T02:43:36.969Z,22.40
2022-09-11T02:46:03.503Z,22.40
2022-09-11T02:48:30.061Z,22.40
2022-09-11T02:50:56.532Z,22.30
2022-09-11T02:53:23.020Z,22.40
2022-09-11T02:55:49.497Z,22.40
2022-09-11T02:58:17.561Z,22.40
2022-09-11T03:00:44.069Z,22.40
2022-09-11T03:03:10.658Z,22.40
2022-09-11T03:05:37.138Z,22.30
2022-09-11T03:08:03.616Z,22.30
2022-09-11T03:10:35.608Z,22.40
2022-09-11T03:13:02.117Z,22.40
2022-09-11T03:15:28.595Z,22.30
2022-09-11T03:17:55.104Z,22.40
2022-09-11T03:20:21.576Z,22.40
2022-09-11T03:22:48.037Z,22.40
2022-09-11T03:25:14.504Z,22.40
2022-09-11T03:27:41.542Z,22.40
2022-09-11T03:30:11.584Z,22.30
2022-09-11T03:32:38.061Z,22.30
2022-09-11T03:35:04.523Z,22.40
2022-09-11T03:37:30.994Z,22.30
2022-09-11T03:39:57.504Z,22.30
2022-09-11T03:42:24.035Z,22.30
2022-09-11T03:44:50.521Z,22.40
2022-09-11T03:47:16.984Z,22.30
2022-09-11T03:49:43.449Z,22.30
2022-09-11T03:52:09.913Z,22.30
2022-09-11T03:54:36.397Z,22.30
2022-09-11T03:57:11.792Z,22.30
2022-09-11T03:59:41.620Z,22.40
2022-09-11T04:02:23.619Z,22.30
2022-09-11T04:04:53.600Z,22.30
2022-09-11T04:07:20.061Z,22.30
2022-09-11T04:09:46.554Z,22.30
2022-09-11T04:12:13.034Z,22.30
2022-09-11T04:14:41.617Z,22.20
2022-09-11T04:17:08.073Z,22.10
2022-09-11T04:19:34.541Z,22.10
2022-09-11T04:22:01.021Z,22.10
2022-09-11T04:24:27.497Z,22.10
2022-09-11T04:26:58.603Z,22.10
2022-09-11T04:29:27.047Z,22.10
2022-09-11T04:31:53.545Z,22.10
2022-09-11T04:34:20.036Z,22.10
2022-09-11T04:36:46.493Z,22.10
2022-09-11T04:39:12.979Z,22.10
2022-09-11T04:41:39.459Z,22.10
2022-09-11T04:44:05.942Z,22.10
2022-09-11T04:46:32.420Z,22.10
2022-09-11T04:48:59.631Z,22.10
2022-09-11T04:51:26.086Z,22.10
2022-09-11T04:53:52.571Z,22.10
2022-09-11T04:56:19.047Z,22.10
2022-09-11T04:58:45.543Z,22.10
2022-09-11T05:01:12.071Z,22.20
2022-09-11T05:03:38.651Z,22.10
2022-09-11T05:06:05.214Z,22.10
2022-09-11T05:08:31.719Z,22.10
2022-09-11T05:10:58.196Z,22.10
2022-09-11T05:13:24.689Z,22.10
2022-09-11T05:15:51.164Z,22.10
2022-09-11T05:18:17.647Z,22.10
2022-09-11T05:20:44.119Z,22.10
2022-09-11T05:26:01.807Z,22.10
2022-09-11T05:28:28.282Z,22.10
2022-09-11T05:30:54.753Z,22.00
2022-09-11T05:33:21.215Z,22.00
2022-09-11T05:35:47.729Z,22.10
2022-09-11T05:38:14.201Z,22.00
2022-09-11T05:40:40.685Z,22.10
2022-09-11T05:43:07.164Z,22.10
2022-09-11T05:45:33.672Z,22.10
2022-09-11T05:48:00.197Z,22.00
2022-09-11T05:50:29.661Z,22.00
2022-09-11T05:52:56.136Z,22.10
2022-09-11T05:55:22.600Z,22.00
2022-09-11T05:57:49.077Z,22.10
2022-09-11T06:00:15.542Z,22.10
2022-09-11T06:02:42.025Z,22.10
2022-09-11T06:05:08.506Z,22.10
2022-09-11T06:07:34.980Z,22.10
2022-09-11T06:10:03.342Z,22.10
2022-09-11T06:12:35.707Z,22.10
2022-09-11T06:15:02.172Z,22.00
2022-09-11T06:17:28.645Z,22.10
2022-09-11T06:19:55.111Z,22.10
2022-09-11T06:22:21.580Z,22.10
2022-09-11T06:24:53.732Z,22.10
2022-09-11T06:27:20.197Z,22.10
2022-09-11T06:29:46.675Z,22.10
2022-09-11T06:32:13.141Z,22.10
2022-09-11T06:34:39.624Z,22.10
2022-09-11T06:37:11.753Z,22.10
2022-09-11T06:39:41.803Z,22.10
2022-09-11T06:42:11.892Z,22.10
2022-09-11T06:44:38.354Z,22.10
2022-09-11T06:47:04.810Z,22.10
2022-09-11T06:49:31.303Z,22.10
2022-09-11T06:51:57.790Z,22.10
2022-09-11T06:54:24.265Z,22.10
2022-09-11T06:56:53.706Z,22.10
2022-09-11T06:59:20.189Z,22.10
2022-09-11T07:01:46.767Z,22.10
2022-09-11T07:04:13.339Z,22.10
2022-09-11T07:06:39.813Z,22.10
2022-09-11T07:09:06.307Z,22.10
2022-09-11T07:11:35.774Z,22.10
2022-09-11T07:14:02.280Z,22.10
2022-09-11T07:16:28.834Z,22.10
2022-09-11T07:18:55.389Z,22.10
2022-09-11T07:21:21.865Z,22.10
2022-09-11T07:23:53.976Z,22.10
2022-09-11T07:26:20.447Z,22.00
2022-09-11T07:28:46.926Z,22.10
2022-09-11T07:31:16.340Z,22.00
2022-09-11T07:33:46.506Z,22.10
2022-09-11T07:36:12.980Z,22.00
2022-09-11T07:38:39.456Z,22.00
2022-09-11T07:41:05.939Z,22.10
2022-09-11T07:43:32.422Z,22.10
2022-09-11T07:45:58.990Z,22.10
2022-09-11T07:48:25.480Z,22.10
2022-09-11T07:50:51.961Z,22.10
2022-09-11T07:53:18.443Z,22.10
2022-09-11T07:58:41.790Z,22.10
2022-09-11T08:01:08.305Z,22.10
2022-09-11T08:03:35.750Z,22.10
2022-09-11T08:06:05.796Z,22.10
2022-09-11T08:08:35.948Z,22.10
2022-09-11T08:11:05.825Z,22.20
2022-09-11T08:13:36.089Z,22.20
2022-09-11T08:16:05.870Z,22.10
2022-09-11T08:18:32.363Z,22.20
2022-09-11T08:20:58.824Z,22.20
2022-09-11T08:23:29.864Z,22.20
2022-09-11T08:25:56.336Z,22.30
2022-09-11T08:28:22.799Z,22.20
2022-09-11T08:30:49.338Z,22.30
2022-09-11T08:33:15.866Z,22.30
2022-09-11T08:38:32.489Z,22.30
2022-09-11T08:40:59.832Z,22.40
2022-09-11T08:43:26.305Z,22.40
2022-09-11T08:45:52.863Z,22.40
2022-09-11T08:48:19.352Z,22.40
2022-09-11T08:50:47.897Z,22.40
2022-09-11T08:53:17.838Z,22.50
2022-09-11T08:55:44.339Z,22.40
2022-09-11T08:58:24.063Z,22.50
2022-09-11T09:00:50.555Z,22.50
2022-09-11T09:08:53.879Z,22.60
2022-09-11T09:11:20.353Z,22.60
2022-09-11T09:13:46.829Z,22.60
2022-09-11T09:16:13.364Z,22.60
2022-09-11T09:18:39.847Z,22.60
2022-09-11T09:21:06.326Z,22.60
2022-09-11T09:23:32.814Z,22.60
2022-09-11T09:28:53.882Z,22.60
2022-09-11T09:34:10.756Z,22.50
2022-09-11T09:36:37.257Z,22.50
2022-09-11T09:39:05.847Z,22.60
2022-09-11T09:41:32.362Z,22.60
2022-09-11T09:44:05.893Z,22.60
2022-09-11T09:49:23.908Z,22.10
2022-09-11T09:51:50.378Z,21.90
2022-09-11T09:59:51.690Z,21.90
2022-09-11T10:02:18.223Z,22.00
2022-09-11T10:04:44.715Z,22.10
2022-09-11T10:10:01.715Z,22.10
2022-09-11T10:18:05.913Z,22.20
2022-09-11T10:23:23.912Z,22.30
2022-09-11T10:25:50.410Z,22.30
2022-09-11T10:28:16.887Z,22.30
2022-09-11T10:30:43.386Z,22.40
2022-09-11T10:33:11.878Z,22.40
2022-09-11T10:35:41.934Z,22.40
2022-09-11T10:38:11.973Z,22.40
2022-09-11T10:40:38.463Z,22.40
2022-09-11T10:43:04.948Z,22.40
2022-09-11T10:45:31.490Z,22.40
2022-09-11T10:47:58.044Z,22.50
2022-09-11T10:50:24.544Z,22.40
2022-09-11T10:52:51.034Z,22.40
2022-09-11T10:55:17.510Z,22.40
2022-09-11T10:57:43.989Z,22.40
2022-09-11T11:00:10.481Z,22.40
2022-09-11T11:02:42.014Z,22.30
2022-09-11T11:05:08.504Z,22.40
2022-09-11T11:07:34.971Z,22.40
2022-09-11T11:10:01.465Z,22.40
2022-09-11T11:12:29.899Z,22.40
2022-09-11T11:14:56.359Z,22.40
2022-09-11T11:17:23.961Z,22.40
2022-09-11T11:19:50.425Z,22.40
2022-09-11T11:22:16.898Z,22.40
2022-09-11T11:24:47.939Z,22.40
2022-09-11T11:27:14.415Z,22.40
2022-09-11T11:29:54.175Z,22.40
2022-09-11T11:32:23.988Z,22.40
2022-09-11T11:34:50.470Z,22.40
2022-09-11T11:37:16.931Z,22.40
2022-09-11T11:39:43.415Z,22.40
2022-09-11T11:45:00.766Z,22.30
2022-09-11T11:50:17.603Z,22.30
2022-09-11T11:52:44.081Z,22.30
2022-09-11T11:55:10.615Z,22.40
2022-09-11T11:57:37.080Z,22.30
2022-09-11T12:00:06.010Z,22.30
2022-09-11T12:02:36.015Z,22.30
2022-09-11T12:05:05.997Z,22.40
2022-09-11T12:07:36.152Z,22.40
2022-09-11T12:10:02.636Z,22.40
2022-09-11T12:12:29.104Z,22.40
2022-09-11T12:17:45.818Z,22.40
2022-09-11T12:20:12.383Z,22.40
2022-09-11T12:22:38.955Z,22.40
2022-09-11T12:25:06.010Z,22.50
2022-09-11T12:27:36.224Z,22.40
2022-09-11T12:38:35.870Z,22.40
2022-09-11T12:41:02.347Z,22.40
2022-09-11T12:43:36.042Z,22.40
2022-09-11T12:46:02.598Z,22.50
2022-09-11T12:48:29.097Z,22.40
2022-09-11T12:51:00.035Z,22.40
2022-09-11T12:53:30.197Z,22.40
2022-09-11T12:56:00.047Z,22.40
2022-09-11T12:58:30.133Z,22.40
2022-09-11T13:00:56.620Z,22.40
2022-09-11T13:03:24.013Z,22.50
2022-09-11T13:05:50.499Z,22.40
2022-09-11T13:08:18.020Z,22.40
2022-09-11T13:10:44.516Z,22.50
2022-09-11T13:13:10.980Z,22.50
2022-09-11T13:15:37.498Z,22.50
2022-09-11T13:18:04.009Z,22.50
2022-09-11T13:20:30.512Z,22.50
2022-09-11T13:22:58.631Z,22.50
2022-09-11T13:25:25.292Z,22.50
2022-09-11T13:27:51.756Z,22.50
2022-09-11T13:30:18.256Z,22.50
2022-09-11T13:32:44.740Z,22.50
2022-09-11T13:35:11.229Z,22.50
2022-09-11T13:37:37.710Z,22.50
2022-09-11T13:40:04.387Z,22.50
2022-09-11T13:42:36.262Z,22.50
2022-09-11T13:45:06.091Z,22.60
2022-09-11T13:47:32.560Z,22.60
2022-09-11T13:49:59.053Z,22.60
2022-09-11T13:52:25.525Z,22.60
2022-09-11T13:54:54.040Z,22.60
2022-09-11T13:57:20.519Z,22.60
2022-09-11T13:59:47.028Z,22.60
2022-09-11T14:02:13.564Z,22.60
2022-09-11T14:04:42.107Z,22.60
2022-09-11T14:07:12.109Z,22.60
2022-09-11T14:09:38.573Z,22.60
2022-09-11T14:12:05.076Z,22.70
2022-09-11T14:14:31.560Z,22.60
2022-09-11T14:16:58.058Z,22.60
2022-09-11T14:19:24.543Z,22.60
2022-09-11T14:21:51.038Z,22.70
2022-09-11T14:24:17.498Z,22.70
2022-09-11T14:26:43.958Z,22.70
2022-09-11T14:29:10.462Z,22.70
2022-09-11T14:31:36.921Z,22.70
2022-09-11T14:34:03.399Z,22.70
2022-09-11T14:36:29.873Z,22.70
2022-09-11T14:38:56.353Z,22.70
2022-09-11T14:41:22.830Z,22.70
2022-09-11T14:43:54.294Z,22.70
2022-09-11T14:46:20.825Z,22.70
2022-09-11T14:48:47.312Z,22.80
2022-09-11T14:51:13.899Z,22.80
2022-09-11T14:53:40.443Z,22.80
2022-09-11T14:56:12.134Z,22.90
2022-09-11T14:58:38.626Z,22.90
2022-09-11T15:01:05.127Z,22.80
2022-09-11T15:03:31.696Z,22.80
2022-09-11T15:05:58.261Z,22.80
2022-09-11T15:08:24.738Z,22.80
2022-09-11T15:10:51.225Z,22.80
2022-09-11T15:13:17.711Z,22.80
2022-09-11T15:15:48.184Z,22.90
2022-09-11T15:18:14.683Z,22.80
2022-09-11T15:20:41.146Z,22.80
2022-09-11T15:23:07.627Z,22.80
2022-09-11T15:25:36.166Z,22.90
2022-09-11T15:28:06.348Z,22.90
2022-09-11T15:30:32.829Z,22.90
2022-09-11T15:32:59.297Z,22.90
2022-09-11T15:35:29.527Z,22.90
2022-09-11T15:37:58.672Z,22.90
2022-09-11T15:40:25.152Z,22.80
2022-09-11T15:42:51.632Z,22.90
2022-09-11T15:45:18.112Z,22.80
2022-09-11T15:47:44.593Z,22.80
2022-09-11T15:50:12.171Z,22.80
2022-09-11T15:52:38.640Z,22.80
2022-09-11T15:55:05.124Z,22.80
2022-09-11T15:57:31.606Z,22.80
2022-09-11T15:59:58.083Z,22.90
2022-09-11T16:02:24.639Z,22.80
2022-09-11T16:04:53.792Z,22.80
2022-09-11T16:07:24.238Z,22.80
2022-09-11T16:09:50.745Z,22.80
2022-09-11T16:12:17.212Z,22.90
2022-09-11T16:14:43.723Z,22.90
2022-09-11T16:17:10.183Z,22.80
2022-09-11T16:19:36.675Z,22.90
2022-09-11T16:22:03.154Z,22.90
2022-09-11T16:24:29.636Z,22.80
2022-09-11T16:27:00.230Z,22.90
2022-09-11T16:29:37.814Z,22.90
2022-09-11T16:32:13.164Z,22.90
2022-09-11T16:34:39.647Z,22.90
2022-09-11T16:37:06.142Z,22.80
2022-09-11T16:39:32.629Z,22.80
2022-09-11T16:41:59.113Z,22.80
2022-09-11T16:44:30.370Z,22.80
2022-09-11T16:46:56.863Z,22.90
2022-09-11T16:49:23.352Z,22.90
2022-09-11T16:51:49.848Z,22.90
2022-09-11T16:54:16.307Z,23.00
2022-09-11T16:56:45.836Z,23.00
2022-09-11T16:59:12.606Z,23.00
2022-09-11T17:01:39.105Z,23.00
2022-09-11T17:04:05.615Z,23.00
2022-09-11T17:06:32.112Z,23.00
2022-09-11T17:09:00.242Z,23.00
2022-09-11T17:11:26.743Z,22.90
2022-09-11T17:13:53.206Z,22.90
2022-09-11T17:16:19.730Z,22.90
2022-09-11T17:18:48.200Z,22.80
2022-09-11T17:21:14.673Z,22.80
2022-09-11T17:23:41.142Z,22.80
2022-09-11T17:26:12.269Z,22.90
2022-09-11T17:28:38.744Z,22.80
2022-09-11T17:31:05.283Z,22.80
2022-09-11T17:33:36.485Z,22.80
2022-09-11T17:36:02.966Z,22.80
2022-09-11T17:38:29.433Z,22.80
2022-09-11T17:40:55.895Z,22.80
2022-09-11T17:43:22.369Z,22.80
2022-09-11T17:45:54.279Z,22.80
2022-09-11T17:48:20.750Z,22.90
2022-09-11T17:50:47.235Z,22.80
2022-09-11T17:53:13.713Z,22.80
2022-09-11T17:55:42.284Z,22.80
2022-09-11T17:58:12.350Z,22.80
2022-09-11T18:00:38.891Z,22.90
2022-09-11T18:03:06.258Z,22.80
2022-09-11T18:05:36.286Z,22.80
2022-09-11T18:08:02.761Z,22.80
2022-09-11T18:10:30.298Z,22.80
2022-09-11T18:12:56.783Z,22.80
2022-09-11T18:15:24.279Z,22.80
2022-09-11T18:17:50.764Z,22.80
2022-09-11T18:20:17.241Z,22.80
2022-09-11T18:23:00.517Z,22.80
2022-09-11T18:25:27.006Z,22.80
2022-09-11T18:27:53.489Z,22.80
2022-09-11T18:30:20.002Z,22.80
2022-09-11T18:32:46.475Z,22.80
2022-09-11T18:35:12.935Z,22.80
2022-09-11T18:37:39.414Z,22.80
2022-09-11T18:40:05.965Z,22.70
2022-09-11T18:42:32.489Z,22.70
2022-09-11T18:44:59.965Z,22.70
2022-09-11T18:47:26.527Z,22.80
2022-09-11T18:49:52.999Z,22.70
2022-09-11T18:52:23.936Z,22.80
2022-09-11T18:54:52.471Z,22.70
2022-09-11T18:57:20.055Z,22.70
2022-09-11T18:59:46.521Z,22.70
2022-09-11T19:02:13.023Z,22.70
2022-09-11T19:04:39.502Z,22.70
2022-09-11T19:07:05.973Z,22.70
2022-09-11T19:09:32.444Z,22.70
2022-09-11T19:12:00.215Z,22.70
2022-09-11T19:14:26.945Z,22.70
2022-09-11T19:16:53.420Z,22.70
2022-09-11T19:19:19.894Z,22.60
2022-09-11T19:21:46.370Z,22.60
2022-09-11T19:24:12.848Z,22.60
2022-09-11T19:29:30.041Z,22.60
2022-09-11T19:31:56.518Z,22.60
2022-09-11T19:34:22.991Z,22.60
2022-09-11T19:36:54.386Z,22.60
2022-09-11T19:39:20.867Z,22.60
2022-09-11T19:41:48.391Z,22.60
2022-09-11T19:44:18.570Z,22.60
2022-09-11T19:46:45.101Z,22.60
2022-09-11T19:49:11.603Z,22.60
2022-09-11T19:51:38.085Z,22.60
2022-09-11T19:54:04.567Z,22.60
2022-09-11T19:56:31.042Z,22.50
2022-09-11T19:58:57.521Z,22.50
2022-09-11T20:01:24.027Z,22.50
2022-09-11T20:03:50.491Z,22.50
2022-09-11T20:06:16.981Z,22.50
2022-09-11T20:09:13.403Z,22.50
2022-09-11T20:11:42.417Z,22.50
2022-09-11T20:14:12.473Z,22.50
2022-09-11T20:16:42.410Z,22.50
2022-09-11T20:19:12.590Z,22.50
2022-09-11T20:21:42.407Z,22.50
2022-09-11T20:24:08.891Z,22.50
2022-09-11T20:26:36.407Z,22.50
2022-09-11T20:29:02.881Z,22.50
2022-09-11T20:31:30.485Z,22.40
2022-09-11T20:33:57.163Z,22.50
2022-09-11T20:36:23.667Z,22.50
2022-09-11T20:38:50.129Z,22.50
2022-09-11T20:41:16.621Z,22.50
2022-09-11T20:43:43.127Z,22.50
2022-09-11T20:46:09.626Z,22.50
2022-09-11T20:48:36.110Z,22.50
2022-09-11T20:51:02.595Z,22.40
2022-09-11T20:53:30.426Z,22.50
2022-09-11T20:56:00.591Z,22.40
2022-09-11T20:58:27.078Z,22.40
2022-09-11T21:00:53.593Z,22.40
2022-09-11T21:03:20.110Z,22.40
2022-09-11T21:05:46.578Z,22.30
2022-09-11T21:08:13.059Z,22.30
2022-09-11T21:10:39.519Z,22.40
2022-09-11T21:13:06.012Z,22.30
2022-09-11T21:15:32.485Z,22.40
2022-09-11T21:17:58.981Z,22.30
2022-09-11T21:20:25.459Z,22.30
2022-09-11T21:22:51.942Z,22.30
2022-09-11T21:25:18.406Z,22.40
2022-09-11T21:27:44.878Z,22.30
2022-09-11T21:30:11.356Z,22.40
2022-09-11T21:32:37.841Z,22.40
2022-09-11T21:35:04.304Z,22.40
2022-09-11T21:37:30.807Z,22.30
2022-09-11T21:39:57.286Z,22.30
2022-09-11T21:42:23.812Z,22.30
2022-09-11T21:44:50.280Z,22.30
2022-09-11T21:50:07.084Z,22.30
2022-09-11T21:52:33.575Z,22.30
2022-09-11T21:55:00.039Z,22.30
2022-09-11T21:57:26.519Z,22.30
2022-09-11T21:59:52.998Z,22.30
2022-09-11T22:02:19.538Z,22.30
2022-09-11T22:04:46.061Z,22.30
2022-09-11T22:07:12.525Z,22.30
2022-09-11T22:09:39.002Z,22.30
2022-09-11T22:12:05.487Z,22.30
2022-09-11T22:14:36.627Z,22.30
2022-09-11T22:17:06.487Z,22.30
2022-09-11T22:19:32.945Z,22.30
2022-09-11T22:21:59.423Z,22.30
2022-09-11T22:24:25.892Z,22.30
2022-09-11T22:26:54.476Z,22.30
2022-09-11T22:29:20.963Z,22.30
2022-09-11T22:31:47.474Z,22.30
2022-09-11T22:34:13.977Z,22.30
2022-09-11T22:36:40.449Z,22.30
2022-09-11T22:39:06.951Z,22.30
2022-09-11T22:41:33.441Z,22.30
2022-09-11T22:43:59.935Z,22.20
2022-09-11T22:46:30.520Z,22.20
2022-09-11T22:48:57.014Z,22.20
2022-09-11T22:51:23.497Z,22.20
2022-09-11T22:53:49.964Z,22.20
2022-09-11T22:56:18.478Z,22.20
2022-09-11T22:58:45.140Z,22.20
2022-09-11T23:01:11.774Z,22.20
2022-09-11T23:03:38.327Z,22.20
2022-09-11T23:06:04.974Z,22.30
2022-09-11T23:08:34.673Z,22.30
2022-09-11T23:11:03.569Z,22.20
2022-09-11T23:13:30.040Z,22.20
2022-09-11T23:15:56.547Z,22.20
2022-09-11T23:18:23.060Z,22.20
2022-09-11T23:20:49.524Z,22.20
2022-09-11T23:23:15.988Z,22.20
2022-09-11T23:25:42.459Z,22.20
2022-09-11T23:28:12.552Z,22.20
2022-09-11T23:30:39.064Z,22.20
2022-09-11T23:33:05.535Z,22.20
2022-09-11T23:35:32.020Z,22.20
2022-09-11T23:37:58.495Z,22.30
2022-09-11T23:40:24.990Z,22.20
2022-09-11T23:42:54.570Z,22.20
2022-09-11T23:45:21.092Z,22.20
2022-09-11T23:47:47.626Z,22.20
2022-09-11T23:50:14.078Z,22.20
2022-09-11T23:52:40.565Z,22.20
2022-09-11T23:55:12.598Z,22.20
2022-09-11T23:57:39.100Z,22.20
